Latest Weather Observations for Adelaide

IDS60801

Issued at 10:35 pm CST Saturday 26 July 2014 (issued every 30 minutes, with the page automatically refreshed every 10 minutes)

About weather observations | Map of weather stations | Latest weather observations for SA | Other Formats
Station Details ID: 023090 Name: KENT TOWN Lat: -34.92 Lon: 138.62 Height: 48.0 m
Data from the previous 72 hours. | See also: Recent months at Adelaide
Date/Time
CST
Temp
°C
App
Temp
°C
Dew
Point
Rel
Hum
%
Delta-T
°C
Wind Press
QNH
hPa
Press
MSL
hPa
Rain
since 9 am
mm
Dir
 
Spd
km/h
Gust
km/h
Spd
kts
Gust
kts
26/10:30pm 7.8 6.2 6.5 91 0.6 N 4 7 2 4 1026.2 - 0.0
26/10:00pm 8.3 6.4 6.8 90 0.7 NNE 6 7 3 4 1026.3 - 0.0
26/09:30pm 8.4 6.4 7.1 91 0.6 NE 7 9 4 5 1026.5 - 0.0
26/09:00pm 8.6 6.6 7.3 91 0.6 ENE 7 9 4 5 1026.5 1026.6 0.0
26/08:30pm 8.9 7.5 7.4 90 0.7 ENE 4 7 2 4 1026.6 - 0.0
26/08:00pm 9.5 8.2 7.8 89 0.8 E 4 7 2 4 1026.7 - 0.0
26/07:30pm 10.1 8.3 8.0 87 1.0 E 7 9 4 5 1026.7 - 0.0
26/07:00pm 10.6 9.1 8.3 86 1.1 E 6 7 3 4 1026.7 - 0.0
26/06:30pm 11.4 9.9 8.3 81 1.5 N 6 7 3 4 1026.5 - 0.0
26/06:00pm 12.1 10.5 8.7 80 1.7 NNW 7 9 4 5 1026.5 1026.6 0.0
26/05:30pm 13.1 11.3 7.8 70 2.6 NW 7 11 4 6 1026.3 - 0.0
26/05:00pm 13.8 11.6 7.9 67 2.9 NW 9 15 5 8 1026.2 - 0.0
26/04:30pm 14.8 12.3 8.0 64 3.4 NW 11 17 6 9 1026.1 - 0.0
26/04:00pm 15.6 12.2 7.8 59 3.9 NW 15 20 8 11 1026.1 - 0.0
26/03:30pm 16.0 12.4 6.8 54 4.5 NW 15 22 8 12 1026.1 - 0.0
26/03:00pm 15.7 12.3 7.7 59 4.0 NNW 15 20 8 11 1026.0 1026.1 0.0
26/02:30pm 15.6 12.7 8.0 60 3.8 NNW 13 20 7 11 1026.0 - 0.0
26/02:00pm 14.6 11.4 8.6 67 3.0 N 15 22 8 12 1026.2 - 0.0
26/01:30pm 15.2 13.0 9.4 68 3.0 NNW 11 19 6 10 1026.3 - 0.0
26/01:00pm 14.0 12.3 9.7 75 2.2 NNW 9 15 5 8 1026.7 - 0.0
26/12:30pm 13.7 11.7 10.2 79 1.8 N 11 17 6 9 1027.3 - 0.0
26/12:00pm 12.7 10.6 9.7 82 1.5 NNW 11 15 6 8 1027.7 1027.8 0.0
26/11:30am 12.4 10.9 10.5 88 1.0 NW 9 13 5 7 1028.1 - 0.0
26/11:00am 11.7 10.4 10.1 90 0.8 NNW 7 11 4 6 1028.3 - 0.0
26/10:30am 11.1 10.0 10.1 94 0.5 NNE 6 11 3 6 1028.4 - 0.0
26/10:00am 10.7 9.7 10.3 97 0.2 N 6 11 3 6 1028.5 - 0.0
26/09:30am 10.5 9.3 10.3 99 0.1 NNW 7 13 4 7 1028.4 - 0.0
26/09:00am 10.4 9.2 10.2 99 0.1 N 7 11 4 6 1028.1 1028.2 3.0
26/08:30am 10.6 9.1 10.4 99 0.1 N 9 11 5 6 1027.6 - 3.0
26/08:00am 10.6 9.7 10.6 100 0.0 N 6 7 3 4 1027.2 - 3.0
26/07:30am 10.4 9.2 10.2 99 0.1 NNE 7 9 4 5 1026.9 - 3.0
26/07:00am 10.4 9.4 10.2 99 0.1 NE 6 7 3 4 1026.6 - 3.0
26/06:30am 10.4 9.4 10.2 99 0.1 N 6 9 3 5 1026.4 - 3.0
26/06:00am 10.6 9.6 10.2 97 0.2 N 6 7 3 4 1026.0 1026.1 3.0
26/05:30am 10.7 9.7 10.3 97 0.2 N 6 9 3 5 1025.7 - 3.0
26/05:00am 10.8 10.6 10.4 97 0.2 N 2 9 1 5 1025.5 - 3.0
26/04:30am 10.8 10.5 10.2 96 0.3 NNE 2 7 1 4 1025.3 - 3.0
26/04:00am 10.7 10.5 10.3 97 0.2 NNE 2 7 1 4 1025.1 - 3.0
26/03:30am 10.7 9.1 10.3 97 0.2 N 9 13 5 7 1025.0 - 3.0
26/03:00am 11.0 9.8 10.4 96 0.3 N 7 9 4 5 1024.9 1025.0 3.0
26/02:30am 11.0 10.0 10.4 96 0.3 NNE 6 7 3 4 1024.7 - 3.0
26/02:00am 11.0 10.4 10.4 96 0.3 NE 4 11 2 6 1024.5 - 3.0
26/01:30am 10.7 9.7 10.3 97 0.2 NE 6 7 3 4 1024.4 - 3.0
26/01:00am 11.0 9.8 10.4 96 0.3 NNE 7 11 4 6 1024.2 - 3.0
26/12:30am 11.2 10.3 10.6 96 0.3 NNE 6 7 3 4 1024.4 - 3.0
26/12:00am 10.9 9.8 10.5 97 0.2 NE 7 9 4 5 1024.3 1024.4 3.0
 
Date/Time
CST
Temp
°C
App
Temp
°C
Dew
Point
Rel
Hum
%
Delta-T
°C
Wind Press
QNH
hPa
Press
MSL
hPa
Rain
since 9 am
mm
Dir
 
Spd
km/h
Gust
km/h
Spd
kts
Gust
kts
25/11:30pm 11.2 10.1 10.6 96 0.3 NE 7 9 4 5 1024.1 - 3.0
25/11:00pm 11.4 10.5 10.8 96 0.3 N 6 7 3 4 1023.8 - 3.0
25/10:30pm 11.3 10.8 10.7 96 0.3 NNW 4 7 2 4 1023.7 - 3.0
25/10:00pm 11.0 10.4 10.4 96 0.3 NE 4 6 2 3 1023.4 - 3.0
25/09:30pm 11.6 11.9 10.8 95 0.4 CALM 0 0 0 0 1023.2 - 3.0
25/09:00pm 12.4 12.9 11.6 95 0.4 CALM 0 0 0 0 1023.0 1023.1 3.0
25/08:30pm 12.7 13.3 11.8 94 0.5 CALM 0 0 0 0 1022.8 - 3.0
25/08:00pm 12.8 12.6 11.7 93 0.6 W 4 9 2 5 1022.6 - 3.0
25/07:30pm 13.0 11.8 11.7 92 0.7 WSW 9 13 5 7 1022.3 - 3.0
25/07:00pm 13.0 12.4 11.7 92 0.7 SSW 6 7 3 4 1022.0 - 3.0
25/06:30pm 12.9 12.7 11.8 93 0.6 SW 4 9 2 5 1021.7 - 3.0
25/06:00pm 13.1 12.3 11.8 92 0.7 SW 7 15 4 8 1021.2 1021.3 3.0
25/05:30pm 13.4 12.7 11.9 91 0.8 WSW 7 11 4 6 1020.8 - 3.0
25/05:00pm 13.4 12.0 12.1 92 0.7 W 11 19 6 10 1020.4 - 2.8
25/04:30pm 14.8 12.9 10.4 75 2.3 WNW 11 17 6 9 1020.0 - 0.0
25/04:00pm 15.1 12.7 10.1 72 2.6 WNW 13 20 7 11 1019.7 - 0.0
25/03:30pm 15.3 11.9 10.6 73 2.5 WNW 19 26 10 14 1019.5 - 0.0
25/03:00pm 15.3 12.5 9.9 70 2.8 WNW 15 24 8 13 1019.1 1019.2 0.0
25/02:30pm 15.5 12.7 11.2 75 2.3 WNW 17 24 9 13 1018.9 - 0.0
25/02:00pm 15.5 12.6 11.0 74 2.4 WNW 17 26 9 14 1018.7 - 0.0
25/01:30pm 15.1 12.3 11.2 77 2.1 WNW 17 24 9 13 1018.7 - 0.0
25/01:00pm 15.0 13.0 11.5 79 1.9 WNW 13 20 7 11 1018.9 - 0.0
25/12:30pm 14.4 12.1 11.6 83 1.5 NW 15 22 8 12 1019.1 - 0.0
25/12:00pm 14.1 11.3 11.3 83 1.5 NW 17 24 9 13 1019.3 1019.4 0.0
25/11:30am 13.6 10.4 11.3 86 1.2 NNW 19 26 10 14 1019.4 - 0.0
25/11:00am 13.0 10.9 11.3 89 0.9 NNW 13 20 7 11 1019.3 - 0.0
25/10:30am 13.4 11.8 11.5 88 1.0 N 11 17 6 9 1019.2 - 0.0
25/10:00am 13.4 11.3 11.3 87 1.1 WNW 13 19 7 10 1019.2 - 0.0
25/09:30am 13.1 10.7 11.4 89 0.9 WNW 15 20 8 11 1018.7 - 0.0
25/09:00am 13.0 10.9 11.3 89 0.9 WNW 13 24 7 13 1018.3 1018.4 1.4
25/08:30am 12.6 10.5 11.1 91 0.8 NW 13 22 7 12 1018.1 - 1.4
25/08:00am 12.3 10.5 11.0 92 0.7 NNW 11 15 6 8 1017.7 - 1.4
25/07:30am 12.1 10.8 11.1 94 0.5 NW 9 17 5 9 1017.1 - 1.4
25/07:00am 12.1 9.2 11.1 94 0.5 NW 17 24 9 13 1016.7 - 1.4
25/06:30am 12.1 10.0 11.1 94 0.5 NW 13 20 7 11 1016.4 - 1.4
25/06:00am 12.1 9.6 11.1 94 0.5 NW 15 20 8 11 1015.9 1016.0 1.4
25/05:30am 12.0 9.5 11.0 94 0.5 NW 15 20 8 11 1015.4 - 1.4
25/05:00am 11.9 9.4 10.9 94 0.5 NW 15 24 8 13 1015.1 - 1.4
25/04:30am 11.8 9.6 10.8 94 0.5 NNW 13 22 7 12 1014.9 - 1.2
25/04:00am 11.7 8.7 10.7 94 0.5 NNW 17 26 9 14 1014.7 - 1.2
25/03:30am 11.8 9.2 10.8 94 0.5 NNW 15 20 8 11 1014.6 - 1.2
25/03:00am 11.9 9.3 10.7 92 0.6 NNW 15 24 8 13 1014.4 1014.4 1.2
25/02:30am 11.8 9.6 10.8 94 0.5 NNW 13 20 7 11 1014.3 - 1.2
25/02:00am 11.9 9.0 10.9 94 0.5 NW 17 26 9 14 1014.0 - 1.2
25/01:30am 11.9 9.8 11.1 95 0.4 NW 13 20 7 11 1013.7 - 1.2
25/01:00am 12.0 9.5 11.0 94 0.5 NW 15 22 8 12 1013.5 - 1.2
25/12:30am 12.5 9.5 10.8 89 0.9 NW 17 30 9 16 1013.4 - 0.4
25/12:00am 12.6 9.6 10.7 88 1.0 NW 17 28 9 15 1013.2 1013.2 0.4
 
Date/Time
CST
Temp
°C
App
Temp
°C
Dew
Point
Rel
Hum
%
Delta-T
°C
Wind Press
QNH
hPa
Press
MSL
hPa
Rain
since 9 am
mm
Dir
 
Spd
km/h
Gust
km/h
Spd
kts
Gust
kts
24/11:30pm 12.6 10.1 10.9 89 0.9 NW 15 26 8 14 1013.3 - 0.4
24/11:00pm 12.6 9.7 11.1 91 0.8 NW 17 24 9 13 1013.0 - 0.4
24/10:30pm 12.9 10.4 11.0 88 1.0 NW 15 26 8 14 1012.8 - 0.4
24/10:00pm 12.9 10.4 11.0 88 1.0 NW 15 24 8 13 1012.5 - 0.4
24/09:30pm 12.9 10.0 11.0 88 1.0 WNW 17 26 9 14 1012.4 - 0.4
24/09:00pm 13.0 10.0 10.7 86 1.2 WNW 17 28 9 15 1012.2 1012.3 0.4
24/08:30pm 12.9 9.9 10.8 87 1.1 NW 17 24 9 13 1012.1 - 0.4
24/08:00pm 13.1 9.7 10.6 85 1.3 WNW 19 32 10 17 1011.8 - 0.4
24/07:30pm 13.3 9.3 10.4 82 1.5 NW 22 37 12 20 1011.2 - 0.4
24/07:00pm 13.4 10.3 10.3 81 1.6 NNW 17 26 9 14 1010.6 - 0.4
24/06:30pm 13.5 10.8 10.4 81 1.6 NNW 15 22 8 12 1010.4 - 0.4
24/06:00pm 13.6 11.3 10.5 81 1.6 NNW 13 20 7 11 1010.1 1010.2 0.4
24/05:30pm 13.7 11.1 10.7 82 1.6 NW 15 22 8 12 1009.9 - 0.4
24/05:00pm 14.1 10.8 10.9 81 1.7 WNW 19 30 10 16 1009.4 - 0.4
24/04:30pm 14.2 10.0 11.0 81 1.7 WNW 24 41 13 22 1009.2 - 0.4
24/04:00pm 14.2 9.6 11.0 81 1.7 WNW 26 39 14 21 1008.8 - 0.4
24/03:30pm 13.6 9.6 11.9 89 0.9 NW 24 37 13 20 1008.3 - 0.4
24/03:00pm 14.0 9.3 10.6 80 1.8 NNW 26 37 14 20 1007.9 1008.0 0.2
24/02:30pm 13.9 10.7 11.3 84 1.4 NNW 19 32 10 17 1007.6 - 0.2
24/02:00pm 14.1 10.0 10.1 77 2.1 NNW 22 41 12 22 1007.5 - 0.2
24/01:30pm 14.8 10.7 10.0 73 2.5 NNW 22 37 12 20 1007.5 - 0.2
24/01:00pm 15.1 11.1 10.4 73 2.5 NW 22 35 12 19 1007.7 - 0.2
24/12:30pm 14.8 10.1 10.6 76 2.2 NW 26 39 14 21 1007.8 - 0.2
24/12:00pm 13.8 9.3 10.2 79 1.9 NW 24 35 13 19 1008.2 1008.3 0.2
24/11:30am 13.3 9.8 10.8 85 1.3 NNW 20 32 11 17 1008.4 - 0.2
24/11:00am 12.2 8.2 10.5 89 0.9 NNW 22 35 12 19 1008.5 - 0.2
24/10:30am 12.1 8.1 10.4 89 0.9 NNW 22 35 12 19 1008.3 - 0.2
24/10:00am 12.4 9.0 10.7 89 0.9 NW 19 28 10 15 1008.1 - 0.2
24/09:30am 11.6 8.6 10.6 94 0.5 NW 17 28 9 15 1007.8 - 0.2
24/09:00am 11.2 8.2 10.6 96 0.3 NW 17 30 9 16 1007.3 1007.4 16.2
24/08:30am 11.3 8.3 10.5 95 0.4 NNW 17 26 9 14 1006.8 - 15.4
24/08:00am 11.3 8.2 10.3 94 0.5 NNW 17 28 9 15 1006.5 - 14.6
24/07:30am 11.3 8.3 10.5 95 0.4 NNW 17 26 9 14 1006.0 - 14.6
24/07:00am 11.2 7.8 10.6 96 0.3 N 19 32 10 17 1005.5 - 14.4
24/06:30am 10.9 8.2 10.3 96 0.3 N 15 24 8 13 1005.0 - 14.2
24/06:00am 10.8 7.6 10.0 95 0.4 NNE 17 28 9 15 1004.9 1005.0 14.2
24/05:30am 10.9 7.6 9.7 92 0.6 N 17 30 9 16 1005.1 - 13.6
24/05:00am 10.6 7.4 9.8 95 0.4 N 17 28 9 15 1005.2 - 13.4
24/04:30am 10.2 7.2 9.4 95 0.4 NNE 15 24 8 13 1004.9 - 13.0
24/04:00am 10.1 6.7 9.1 93 0.5 NNE 17 28 9 15 1005.0 - 12.4
24/03:30am 10.1 6.3 8.9 92 0.6 NE 19 28 10 15 1005.3 - 12.0
24/03:00am 10.3 6.4 8.7 90 0.8 NNE 19 32 10 17 1005.7 1005.8 11.6
24/02:32am 12.1 6.0 6.4 68 2.7 NNE 28 50 15 27 1005.8 - 10.8
24/02:30am 12.3 6.8 6.0 65 3.0 N 24 35 13 19 1005.9 - 10.8
24/02:00am 11.9 7.8 6.4 69 2.6 NE 17 26 9 14 1006.0 - 10.8
24/01:30am 11.3 7.7 6.9 74 2.1 NNE 15 26 8 14 1006.6 - 10.6
24/01:00am 11.7 6.4 6.9 72 2.3 NE 24 41 13 22 1007.0 - 10.4
24/12:30am 12.3 6.9 6.2 66 2.9 NE 24 41 13 22 1007.3 - 10.0
24/12:00am 12.8 7.3 5.8 62 3.3 NE 24 39 13 21 1007.8 1007.9 9.8
 
Date/Time
CST
Temp
°C
App
Temp
°C
Dew
Point
Rel
Hum
%
Delta-T
°C
Wind Press
QNH
hPa
Press
MSL
hPa
Rain
since 9 am
mm
Dir
 
Spd
km/h
Gust
km/h
Spd
kts
Gust
kts
23/11:30pm 13.1 7.9 5.4 59 3.6 NE 22 46 12 25 1008.4 - 9.8
23/11:17pm 13.6 7.1 4.5 54 4.2 NE 28 50 15 27 1008.4 - 9.8
23/11:00pm 13.0 7.3 4.8 57 3.8 NE 24 48 13 26 1008.5 - 9.8

Other Formats:

Comma delimited format used in spreadsheet applications
http://www.bom.gov.au/fwo/IDS60801/IDS60801.94675.axf

JavaScript Object Notation format (JSON) in row-major order
http://www.bom.gov.au/fwo/IDS60801/IDS60801.94675.json